createdAt,value
2023-11-07T00:03:52.074Z,9.71
2023-11-07T00:07:53.866Z,9.79
2023-11-07T00:11:56.620Z,10.22
2023-11-07T00:15:58.346Z,9.86
2023-11-07T00:20:01.194Z,9.94
2023-11-07T00:24:04.148Z,10.22
2023-11-07T00:28:06.434Z,9.91
2023-11-07T00:32:08.436Z,9.73
2023-11-07T00:36:12.187Z,9.63
2023-11-07T00:40:14.165Z,9.69
2023-11-07T00:44:16.326Z,9.14
2023-11-07T00:48:18.418Z,9.29
2023-11-07T00:52:20.216Z,9.56
2023-11-07T00:56:22.015Z,9.29
2023-11-07T01:00:23.841Z,9.15
2023-11-07T01:04:25.758Z,9.14
2023-11-07T01:08:28.410Z,9.42
2023-11-07T01:12:30.079Z,9.53
2023-11-07T01:16:31.807Z,9.45
2023-11-07T01:20:34.491Z,9.36
2023-11-07T01:24:36.310Z,9.00
2023-11-07T01:28:40.758Z,9.21
2023-11-07T01:32:43.746Z,9.15
2023-11-07T01:36:45.673Z,9.16
2023-11-07T01:40:53.919Z,9.49
2023-11-07T01:44:55.882Z,9.33
2023-11-07T01:48:58.095Z,9.45
2023-11-07T01:53:00.915Z,9.21
2023-11-07T01:57:03.574Z,9.37
2023-11-07T02:01:06.265Z,8.87
2023-11-07T02:05:10.920Z,9.24
2023-11-07T02:09:12.569Z,9.23
2023-11-07T02:13:14.285Z,9.08
2023-11-07T02:17:16.005Z,8.82
2023-11-07T02:21:18.283Z,9.38
2023-11-07T02:25:20.196Z,9.45
2023-11-07T02:29:22.366Z,9.33
2023-11-07T02:33:24.542Z,9.34
2023-11-07T02:37:26.386Z,9.10
2023-11-07T02:41:29.058Z,9.03
2023-11-07T02:45:31.888Z,9.54
2023-11-07T02:49:33.625Z,9.27
2023-11-07T02:53:35.367Z,9.21
2023-11-07T02:57:39.162Z,9.01
2023-11-07T03:01:42.482Z,9.06
2023-11-07T03:05:45.671Z,8.89
2023-11-07T03:09:48.653Z,8.62
2023-11-07T03:13:50.483Z,8.25
2023-11-07T03:17:52.499Z,8.50
2023-11-07T03:21:54.430Z,8.31
2023-11-07T03:25:56.962Z,8.29
2023-11-07T03:29:58.570Z,8.25
2023-11-07T03:34:00.882Z,8.37
2023-11-07T03:38:02.958Z,8.84
2023-11-07T03:42:06.096Z,8.86
2023-11-07T03:46:08.213Z,8.59
2023-11-07T03:50:11.711Z,8.49
2023-11-07T03:54:14.721Z,8.57
2023-11-07T03:58:16.515Z,8.62
2023-11-07T04:02:20.272Z,8.49
2023-11-07T04:06:24.230Z,8.90
2023-11-07T04:10:26.495Z,8.74
2023-11-07T04:14:28.161Z,8.60
2023-11-07T04:18:30.563Z,8.62
2023-11-07T04:22:32.774Z,8.42
2023-11-07T04:26:34.931Z,9.03
2023-11-07T04:30:36.699Z,8.51
2023-11-07T04:34:38.421Z,9.14
2023-11-07T04:38:42.734Z,8.67
2023-11-07T04:42:44.556Z,9.25
2023-11-07T04:46:48.320Z,8.76
2023-11-07T04:50:50.449Z,8.45
2023-11-07T04:54:52.241Z,8.77
2023-11-07T04:58:57.526Z,9.13
2023-11-07T05:03:00.953Z,8.73
2023-11-07T05:07:02.973Z,8.69
2023-11-07T05:11:04.916Z,9.05
2023-11-07T05:15:08.672Z,8.98
2023-11-07T05:19:10.906Z,8.95
2023-11-07T05:23:12.806Z,9.26
2023-11-07T05:27:15.046Z,9.02
2023-11-07T05:31:18.701Z,9.09
2023-11-07T05:35:21.081Z,8.95
2023-11-07T05:39:29.000Z,8.68
2023-11-07T05:43:32.181Z,9.23
2023-11-07T05:47:34.204Z,9.12
2023-11-07T05:51:36.294Z,8.93
2023-11-07T05:55:38.557Z,9.03
2023-11-07T05:59:40.193Z,8.82
2023-11-07T06:03:41.875Z,9.19
2023-11-07T06:07:43.741Z,8.83
2023-11-07T06:11:45.821Z,8.74
2023-11-07T06:15:47.637Z,8.64
2023-11-07T06:19:50.191Z,9.31
2023-11-07T06:23:52.079Z,9.26
2023-11-07T06:27:54.353Z,9.45
2023-11-07T06:31:57.115Z,9.28
2023-11-07T06:35:59.079Z,9.04
2023-11-07T06:40:08.194Z,9.17
2023-11-07T06:44:10.017Z,9.26
2023-11-07T06:48:12.019Z,9.29
2023-11-07T06:52:13.729Z,9.80
2023-11-07T06:56:15.340Z,9.30
2023-11-07T07:00:17.558Z,9.18
2023-11-07T07:04:19.339Z,8.71
2023-11-07T07:08:25.461Z,9.19
2023-11-07T07:12:27.160Z,9.59
2023-11-07T07:16:31.527Z,9.75
2023-11-07T07:20:37.948Z,9.26
2023-11-07T07:24:40.995Z,9.80
2023-11-07T07:28:42.874Z,10.07
2023-11-07T07:32:46.635Z,10.08
2023-11-07T07:36:49.188Z,10.02
2023-11-07T07:40:51.033Z,10.01
2023-11-07T07:44:53.053Z,9.93
2023-11-07T07:48:57.683Z,10.37
2023-11-07T07:53:02.753Z,10.23
2023-11-07T07:57:09.676Z,9.89
2023-11-07T08:01:11.469Z,10.20
2023-11-07T08:05:18.408Z,10.31
2023-11-07T08:09:21.174Z,10.40
2023-11-07T08:13:23.517Z,10.60
2023-11-07T08:17:25.206Z,10.60
2023-11-07T08:21:27.236Z,10.69
2023-11-07T08:25:29.391Z,11.03
2023-11-07T08:29:31.159Z,10.85
2023-11-07T08:33:33.211Z,10.98
2023-11-07T08:37:35.379Z,11.33
2023-11-07T08:41:37.612Z,11.14
2023-11-07T08:45:42.163Z,11.45
2023-11-07T08:49:43.819Z,11.21
2023-11-07T08:53:45.634Z,11.26
2023-11-07T08:57:50.043Z,11.76
2023-11-07T09:01:52.548Z,11.45
2023-11-07T09:05:56.234Z,10.99
2023-11-07T09:09:58.646Z,11.35
2023-11-07T09:14:00.610Z,10.65
2023-11-07T09:18:02.792Z,10.92
2023-11-07T09:22:08.378Z,10.95
2023-11-07T09:26:10.354Z,10.76
2023-11-07T09:30:13.382Z,10.29
2023-11-07T09:34:16.346Z,10.94
2023-11-07T09:38:18.066Z,10.58
2023-11-07T09:42:19.859Z,11.09
2023-11-07T09:46:24.269Z,10.52
2023-11-07T09:50:27.635Z,11.79
2023-11-07T09:54:31.195Z,11.42
2023-11-07T09:58:33.950Z,11.01
2023-11-07T10:02:36.775Z,11.61
2023-11-07T10:06:38.533Z,11.87
2023-11-07T10:10:43.379Z,11.93
2023-11-07T10:14:45.351Z,12.51
2023-11-07T10:18:49.667Z,11.85
2023-11-07T10:22:53.130Z,12.40
2023-11-07T10:27:01.980Z,11.78
2023-11-07T10:31:03.765Z,12.07
2023-11-07T10:35:08.100Z,12.39
2023-11-07T10:39:22.675Z,12.53
2023-11-07T10:43:40.768Z,12.48
2023-11-07T10:47:43.171Z,12.62
2023-11-07T10:51:47.880Z,12.48
2023-11-07T10:55:56.081Z,11.64
2023-11-07T11:00:11.744Z,12.25
2023-11-07T11:04:14.978Z,11.93
2023-11-07T11:08:22.569Z,12.05
2023-11-07T11:12:25.887Z,11.99
2023-11-07T11:16:29.908Z,11.77
2023-11-07T11:20:54.598Z,12.48
2023-11-07T11:25:32.454Z,12.52
2023-11-07T11:29:34.536Z,12.53
2023-11-07T11:33:37.827Z,12.12
2023-11-07T11:38:24.475Z,12.20
2023-11-07T11:43:05.256Z,12.52
2023-11-07T11:47:10.416Z,12.66
2023-11-07T11:51:33.934Z,12.58
2023-11-07T11:56:05.554Z,12.34
2023-11-07T12:00:08.148Z,12.86
2023-11-07T12:04:32.434Z,12.46
2023-11-07T12:08:39.514Z,12.30
2023-11-07T12:12:42.040Z,12.29
2023-11-07T12:16:56.810Z,12.40
2023-11-07T12:20:58.629Z,12.22
2023-11-07T12:25:13.090Z,12.74
2023-11-07T12:29:15.363Z,12.53
2023-11-07T12:33:17.044Z,12.08
2023-11-07T12:37:21.375Z,11.89
2023-11-07T12:41:23.916Z,11.46
2023-11-07T12:45:28.515Z,11.80
2023-11-07T12:49:36.649Z,11.94
2023-11-07T12:53:49.192Z,12.10
2023-11-07T12:57:51.546Z,12.22
2023-11-07T13:01:54.230Z,12.22
2023-11-07T13:06:00.431Z,12.02
2023-11-07T13:10:12.768Z,11.54
2023-11-07T13:14:15.909Z,12.28
2023-11-07T13:18:18.813Z,11.51
2023-11-07T13:22:20.694Z,11.99
2023-11-07T13:26:24.203Z,12.19
2023-11-07T13:30:26.186Z,11.71
2023-11-07T13:34:28.194Z,11.82
2023-11-07T13:38:30.563Z,12.19
2023-11-07T13:42:32.516Z,12.01
2023-11-07T13:46:50.883Z,11.88
2023-11-07T13:50:52.755Z,12.34
2023-11-07T13:54:54.921Z,11.85
2023-11-07T13:58:58.012Z,12.12
2023-11-07T14:03:00.703Z,12.20
2023-11-07T14:07:02.453Z,11.65
2023-11-07T14:11:05.453Z,11.78
2023-11-07T14:15:07.852Z,12.03
2023-11-07T14:19:10.199Z,11.69
2023-11-07T14:23:12.202Z,11.84
2023-11-07T14:27:14.086Z,12.10
2023-11-07T14:31:15.920Z,11.87
2023-11-07T14:35:20.203Z,11.93
2023-11-07T14:39:22.357Z,12.02
2023-11-07T14:43:24.433Z,11.67
2023-11-07T14:47:48.767Z,11.96
2023-11-07T14:51:50.960Z,11.85
2023-11-07T14:55:53.774Z,11.89
2023-11-07T14:59:55.608Z,11.42
2023-11-07T15:03:57.477Z,11.52
2023-11-07T15:08:03.617Z,11.99
2023-11-07T15:12:05.956Z,11.27
2023-11-07T15:16:07.974Z,11.34
2023-11-07T15:20:10.979Z,11.07
2023-11-07T15:24:13.766Z,10.90
2023-11-07T15:28:17.696Z,11.19
2023-11-07T15:32:19.454Z,11.32
2023-11-07T15:36:22.258Z,10.86
2023-11-07T15:40:24.331Z,10.93
2023-11-07T15:44:26.065Z,10.52
2023-11-07T15:48:28.192Z,10.86
2023-11-07T15:52:31.738Z,10.51
2023-11-07T15:56:35.049Z,10.41
2023-11-07T16:00:37.066Z,10.48
2023-11-07T16:04:38.975Z,10.59
2023-11-07T16:08:40.796Z,10.41
2023-11-07T16:12:45.401Z,10.39
2023-11-07T16:16:47.061Z,10.38
2023-11-07T16:20:48.895Z,10.37
2023-11-07T16:24:50.761Z,10.68
2023-11-07T16:28:53.126Z,10.39
2023-11-07T16:32:55.129Z,10.67
2023-11-07T16:36:56.975Z,10.50
2023-11-07T16:40:58.699Z,10.72
2023-11-07T16:45:00.421Z,10.67
2023-11-07T16:49:05.170Z,10.60
2023-11-07T16:53:07.399Z,10.52
2023-11-07T16:57:09.865Z,10.38
2023-11-07T17:01:12.404Z,10.40
2023-11-07T17:05:14.373Z,10.02
2023-11-07T17:09:16.275Z,10.06
2023-11-07T17:13:20.920Z,10.33
2023-11-07T17:17:23.416Z,10.32
2023-11-07T17:21:25.087Z,10.39
2023-11-07T17:25:26.893Z,10.37
2023-11-07T17:29:28.747Z,10.23
2023-11-07T17:33:30.728Z,10.26
2023-11-07T17:37:33.254Z,10.33
2023-11-07T17:41:36.372Z,10.26
2023-11-07T17:45:38.385Z,10.29
2023-11-07T17:49:40.317Z,10.27
2023-11-07T17:53:42.313Z,10.69
2023-11-07T17:57:44.042Z,10.31
2023-11-07T18:01:46.149Z,10.48
2023-11-07T18:05:48.678Z,10.45
2023-11-07T18:09:50.981Z,10.15
2023-11-07T18:13:55.044Z,10.12
2023-11-07T18:17:57.572Z,9.96
2023-11-07T18:22:01.094Z,9.89
2023-11-07T18:26:03.711Z,9.81
2023-11-07T18:30:08.705Z,9.45
2023-11-07T18:34:20.555Z,9.84
2023-11-07T18:38:25.281Z,9.59
2023-11-07T18:42:31.476Z,9.66
2023-11-07T18:46:34.736Z,9.86
2023-11-07T18:50:37.319Z,9.88
2023-11-07T18:54:42.335Z,10.03
2023-11-07T18:58:44.069Z,9.89
2023-11-07T19:02:45.995Z,9.74
2023-11-07T19:06:48.574Z,9.68
2023-11-07T19:10:50.611Z,9.98
2023-11-07T19:14:52.424Z,9.83
2023-11-07T19:18:55.781Z,10.09
2023-11-07T19:23:00.299Z,9.83
2023-11-07T19:27:02.110Z,10.13
2023-11-07T19:31:04.094Z,10.10
2023-11-07T19:35:10.042Z,9.89
2023-11-07T19:39:12.277Z,9.94
2023-11-07T19:43:14.975Z,9.87
2023-11-07T19:47:17.550Z,9.49
2023-11-07T19:51:41.431Z,9.82
2023-11-07T19:55:43.837Z,9.72
2023-11-07T19:59:47.595Z,9.63
2023-11-07T20:03:49.449Z,9.38
2023-11-07T20:07:56.132Z,9.31
2023-11-07T20:12:00.537Z,9.30
2023-11-07T20:16:03.876Z,9.20
2023-11-07T20:20:07.512Z,9.12
2023-11-07T20:24:11.333Z,9.17
2023-11-07T20:28:13.188Z,9.40
2023-11-07T20:32:15.125Z,9.39
2023-11-07T20:36:19.099Z,9.28
2023-11-07T20:40:21.595Z,9.48
2023-11-07T20:44:31.692Z,9.53
2023-11-07T20:48:39.036Z,9.77
2023-11-07T20:53:00.094Z,9.11
2023-11-07T20:57:02.083Z,9.53
2023-11-07T21:01:04.098Z,9.63
2023-11-07T21:05:06.138Z,9.79
2023-11-07T21:09:09.345Z,9.42
2023-11-07T21:13:11.292Z,9.74
2023-11-07T21:17:13.587Z,9.70
2023-11-07T21:21:15.299Z,9.87
2023-11-07T21:25:17.056Z,9.55
2023-11-07T21:29:19.315Z,9.75
2023-11-07T21:33:21.293Z,9.64
2023-11-07T21:37:23.194Z,9.61
2023-11-07T21:41:26.517Z,9.56
2023-11-07T21:45:28.236Z,9.68
2023-11-07T21:49:30.920Z,9.65
2023-11-07T21:53:32.769Z,9.28
2023-11-07T21:57:37.390Z,9.28
2023-11-07T22:01:39.822Z,8.77
2023-11-07T22:05:41.685Z,8.98
2023-11-07T22:09:44.644Z,8.51
2023-11-07T22:13:46.347Z,8.51
2023-11-07T22:17:48.011Z,8.26
2023-11-07T22:21:49.714Z,8.55
2023-11-07T22:25:51.431Z,8.47
2023-11-07T22:29:53.166Z,7.94
2023-11-07T22:33:55.124Z,7.98
2023-11-07T22:37:57.302Z,8.06
2023-11-07T22:41:59.802Z,8.37
2023-11-07T22:46:01.749Z,8.14
2023-11-07T22:50:07.153Z,8.45
2023-11-07T22:54:09.005Z,8.14
2023-11-07T22:58:11.147Z,8.22
2023-11-07T23:02:12.997Z,8.63
2023-11-07T23:06:15.118Z,8.51
2023-11-07T23:10:17.064Z,8.31
2023-11-07T23:14:19.173Z,8.31
2023-11-07T23:18:21.751Z,8.38
2023-11-07T23:22:23.446Z,8.66
2023-11-07T23:26:31.100Z,8.31
2023-11-07T23:30:39.874Z,8.62
2023-11-07T23:34:41.726Z,8.24
2023-11-07T23:38:43.731Z,8.76
2023-11-07T23:42:46.193Z,8.38
2023-11-07T23:46:48.660Z,8.40
2023-11-07T23:50:50.953Z,8.13
2023-11-07T23:55:08.909Z,8.35
2023-11-07T23:59:11.651Z,8.33
